Time;durP1;ratioP1;P1;durP2;ratioP2;P2;SDS_P1;SDS_P2;PMS_P1;PMS_P2;Temp;Humidity;BMP_temperature;BMP_pressure;BME280_temperature;BME280_humidity;BME280_pressure;Samples;Min_cycle;Max_cycle;Signal;HPM_P1;HPM_P2
2022/05/14 00:00:37;;;;;;;16.10;4.60;;;;;;;;;;756994;184;919175;-67
2022/05/14 00:03:03;;;;;;;24.50;4.03;;;;;;;;;;766600;183;919120;-67
2022/05/14 00:05:28;;;;;;;5.23;3.50;;;;;;;;;;754749;183;919252;-67
2022/05/14 00:07:54;;;;;;;6.70;3.23;;;;;;;;;;757527;184;919664;-67
2022/05/14 00:10:20;;;;;;;12.70;3.83;;;;;;;;;;758700;183;920116;-67
2022/05/14 00:15:18;;;;;;;5.70;4.23;;;;;;;;;;762868;183;919460;-67
2022/05/14 00:17:47;;;;;;;6.20;4.93;;;;;;;;;;760655;183;919741;-67
2022/05/14 00:20:10;;;;;;;7.63;3.90;;;;;;;;;;761076;183;919342;-67
2022/05/14 00:22:36;;;;;;;9.10;4.37;;;;;;;;;;759761;183;919038;-67
2022/05/14 00:25:02;;;;;;;7.90;4.17;;;;;;;;;;754930;183;919170;-67
2022/05/14 00:27:28;;;;;;;8.73;4.73;;;;;;;;;;759347;183;919099;-67
2022/05/14 00:29:53;;;;;;;6.33;4.43;;;;;;;;;;764417;184;921988;-67
2022/05/14 00:32:19;;;;;;;6.33;3.53;;;;;;;;;;761092;183;919169;-67
2022/05/14 00:34:45;;;;;;;7.63;5.43;;;;;;;;;;757271;184;920044;-67
2022/05/14 00:37:11;;;;;;;7.47;5.77;;;;;;;;;;762863;184;921715;-67
2022/05/14 00:39:37;;;;;;;6.23;4.60;;;;;;;;;;757768;184;916118;-66
2022/05/14 00:42:03;;;;;;;7.80;4.30;;;;;;;;;;757785;183;914893;-66
2022/05/14 00:44:29;;;;;;;9.63;5.37;;;;;;;;;;764623;183;919181;-67
2022/05/14 00:46:55;;;;;;;9.30;4.80;;;;;;;;;;761222;183;912223;-67
2022/05/14 00:49:20;;;;;;;5.23;4.57;;;;;;;;;;758325;183;913843;-67
2022/05/14 00:51:46;;;;;;;9.47;4.87;;;;;;;;;;760201;183;918763;-67
2022/05/14 00:54:12;;;;;;;6.77;4.50;;;;;;;;;;759813;184;917325;-66
2022/05/14 00:56:38;;;;;;;6.53;4.93;;;;;;;;;;758847;183;916544;-66
2022/05/14 00:59:05;;;;;;;9.63;4.90;;;;;;;;;;755934;183;915521;-66
2022/05/14 01:01:31;;;;;;;6.80;5.13;;;;;;;;;;762866;183;915608;-67
2022/05/14 01:03:56;;;;;;;12.07;5.22;;;;;;;;;;758008;183;916439;-66
2022/05/14 01:06:22;;;;;;;7.43;4.83;;;;;;;;;;757908;184;924853;-66
2022/05/14 01:08:48;;;;;;;7.97;5.00;;;;;;;;;;764624;183;916049;-67
2022/05/14 01:11:14;;;;;;;6.23;5.17;;;;;;;;;;752710;183;916194;-66
2022/05/14 01:13:40;;;;;;;6.43;4.67;;;;;;;;;;760347;184;915407;-66
2022/05/14 01:16:06;;;;;;;6.00;5.10;;;;;;;;;;759555;184;916071;-66
2022/05/14 01:18:32;;;;;;;7.30;4.40;;;;;;;;;;749881;184;916250;-66
2022/05/14 01:20:57;;;;;;;6.30;4.60;;;;;;;;;;747096;186;679587;-67
2022/05/14 01:23:27;;;;;;;11.73;5.07;;;;;;;;;;759073;183;637035;-67
2022/05/14 01:28:42;;;;;;;5.77;4.37;;;;;;;;;;754966;185;645298;-66
2022/05/14 01:31:08;;;;;;;6.43;4.67;;;;;;;;;;769236;180;626498;-67
2022/05/14 01:33:34;;;;;;;9.17;6.50;;;;;;;;;;763646;183;632101;-66
2022/05/14 01:36:00;;;;;;;11.63;6.77;;;;;;;;;;755800;183;913034;-66
2022/05/14 01:38:25;;;;;;;9.63;6.73;;;;;;;;;;763003;183;922367;-66
2022/05/14 01:40:51;;;;;;;9.73;5.93;;;;;;;;;;754486;183;920674;-66
2022/05/14 01:43:17;;;;;;;9.20;5.50;;;;;;;;;;760351;183;919747;-66
2022/05/14 01:45:43;;;;;;;8.77;5.60;;;;;;;;;;764445;183;919518;-66
2022/05/14 01:48:09;;;;;;;8.98;6.20;;;;;;;;;;753567;183;949656;-66
2022/05/14 01:50:35;;;;;;;9.60;6.30;;;;;;;;;;747649;186;1021229;-66
2022/05/14 01:53:00;;;;;;;6.70;4.70;;;;;;;;;;762745;184;1022419;-66
2022/05/14 01:55:26;;;;;;;10.33;5.90;;;;;;;;;;756451;184;919295;-66
2022/05/14 01:57:52;;;;;;;7.60;5.93;;;;;;;;;;751511;185;996062;-66
2022/05/14 02:00:18;;;;;;;9.97;5.43;;;;;;;;;;752732;184;943805;-66
2022/05/14 02:02:44;;;;;;;9.20;6.10;;;;;;;;;;767265;183;919938;-66
2022/05/14 02:05:10;;;;;;;7.50;5.73;;;;;;;;;;760268;183;919425;-66
2022/05/14 02:07:36;;;;;;;7.80;6.50;;;;;;;;;;759528;183;919250;-66
2022/05/14 02:10:02;;;;;;;13.70;6.27;;;;;;;;;;761178;183;919637;-65
2022/05/14 02:12:27;;;;;;;8.37;6.67;;;;;;;;;;751703;184;918348;-66
2022/05/14 02:14:53;;;;;;;10.10;6.23;;;;;;;;;;751767;184;1021893;-65
2022/05/14 02:17:19;;;;;;;7.67;5.53;;;;;;;;;;762599;183;920437;-66
2022/05/14 02:19:45;;;;;;;7.20;6.50;;;;;;;;;;754549;183;920918;-65
2022/05/14 02:22:11;;;;;;;9.83;6.60;;;;;;;;;;754809;183;917316;-65
2022/05/14 02:24:36;;;;;;;7.07;6.07;;;;;;;;;;731061;191;915752;-65
2022/05/14 02:27:03;;;;;;;11.23;6.47;;;;;;;;;;757657;184;914146;-65
2022/05/14 02:29:50;;;;;;;7.43;6.30;;;;;;;;;;758471;183;915825;-65
2022/05/14 02:31:55;;;;;;;7.70;6.70;;;;;;;;;;757041;182;911892;-65
2022/05/14 02:34:20;;;;;;;11.23;6.67;;;;;;;;;;765424;183;915933;-65
2022/05/14 02:36:46;;;;;;;6.53;5.47;;;;;;;;;;760127;184;934900;-65
2022/05/14 02:39:12;;;;;;;7.83;5.67;;;;;;;;;;762295;183;920025;-65
2022/05/14 02:41:38;;;;;;;14.47;6.33;;;;;;;;;;757233;183;919416;-65
2022/05/14 02:44:04;;;;;;;8.03;6.10;;;;;;;;;;761012;183;920370;-65
2022/05/14 02:46:30;;;;;;;18.10;6.90;;;;;;;;;;754032;183;919500;-65
2022/05/14 02:48:56;;;;;;;8.20;6.53;;;;;;;;;;752963;184;919458;-64
2022/05/14 02:51:22;;;;;;;7.80;6.80;;;;;;;;;;764338;183;919370;-65
2022/05/14 02:53:48;;;;;;;10.40;6.90;;;;;;;;;;758549;183;919083;-64
2022/05/14 02:56:13;;;;;;;7.40;5.90;;;;;;;;;;750338;185;919340;-64
2022/05/14 03:01:11;;;;;;;12.93;6.80;;;;;;;;;;748950;183;919646;-65
2022/05/14 03:03:37;;;;;;;9.50;7.50;;;;;;;;;;755500;183;919571;-65
2022/05/14 03:06:03;;;;;;;9.13;6.30;;;;;;;;;;766519;183;910299;-65
2022/05/14 03:08:29;;;;;;;8.83;7.03;;;;;;;;;;758195;184;919170;-65
2022/05/14 03:10:54;;;;;;;11.00;6.43;;;;;;;;;;760866;183;919975;-65
2022/05/14 03:13:20;;;;;;;9.50;7.40;;;;;;;;;;751551;184;918149;-65
2022/05/14 03:15:46;;;;;;;7.10;6.40;;;;;;;;;;758210;185;919122;-65
2022/05/14 03:18:12;;;;;;;10.05;6.28;;;;;;;;;;759805;183;919958;-64
2022/05/14 03:20:38;;;;;;;11.27;6.93;;;;;;;;;;756021;183;919209;-65
2022/05/14 03:23:03;;;;;;;7.87;6.50;;;;;;;;;;766161;183;919337;-64
2022/05/14 03:25:29;;;;;;;9.00;6.83;;;;;;;;;;757795;183;919907;-64
2022/05/14 03:27:55;;;;;;;10.00;6.40;;;;;;;;;;748959;186;919364;-66
2022/05/14 03:30:21;;;;;;;7.55;6.57;;;;;;;;;;758715;183;919212;-64
2022/05/14 03:32:47;;;;;;;7.83;6.40;;;;;;;;;;752195;184;919743;-64
2022/05/14 03:35:13;;;;;;;8.40;7.10;;;;;;;;;;759110;183;920011;-64
2022/05/14 03:37:39;;;;;;;8.13;6.57;;;;;;;;;;757473;184;919192;-65
2022/05/14 03:40:05;;;;;;;14.67;7.37;;;;;;;;;;749237;187;918959;-65
2022/05/14 03:42:31;;;;;;;9.80;6.70;;;;;;;;;;755846;183;919660;-64
2022/05/14 03:44:57;;;;;;;14.57;6.77;;;;;;;;;;758700;183;918683;-64
2022/05/14 03:47:22;;;;;;;9.83;6.97;;;;;;;;;;764623;183;919300;-65
2022/05/14 03:49:48;;;;;;;10.93;7.00;;;;;;;;;;762862;183;918860;-65
2022/05/14 03:52:14;;;;;;;9.25;7.25;;;;;;;;;;761650;184;918457;-65
2022/05/14 03:54:42;;;;;;;9.97;7.90;;;;;;;;;;755361;183;919528;-64
2022/05/14 03:57:06;;;;;;;10.17;9.03;;;;;;;;;;750929;186;919348;-65
2022/05/14 03:59:33;;;;;;;12.60;7.47;;;;;;;;;;762373;183;919620;-64
2022/05/14 04:01:57;;;;;;;15.70;8.43;;;;;;;;;;759718;183;633398;-64
2022/05/14 04:04:24;;;;;;;10.50;8.97;;;;;;;;;;756859;186;630996;-65
2022/05/14 04:06:49;;;;;;;9.57;8.60;;;;;;;;;;760545;182;919042;-64
2022/05/14 04:09:15;;;;;;;10.60;9.40;;;;;;;;;;758998;183;919916;-64
2022/05/14 04:11:41;;;;;;;10.33;8.10;;;;;;;;;;762813;183;918831;-64
2022/05/14 04:14:07;;;;;;;15.37;8.77;;;;;;;;;;756215;184;925238;-64
2022/05/14 04:16:33;;;;;;;11.10;9.80;;;;;;;;;;761079;183;919553;-64
2022/05/14 04:18:58;;;;;;;12.43;10.20;;;;;;;;;;753096;185;919244;-64
2022/05/14 04:21:24;;;;;;;12.18;9.80;;;;;;;;;;757479;183;919181;-65
2022/05/14 04:23:50;;;;;;;11.80;9.83;;;;;;;;;;750968;183;919949;-66
2022/05/14 04:26:16;;;;;;;13.07;11.23;;;;;;;;;;759092;184;919520;-64
2022/05/14 04:28:42;;;;;;;14.63;11.40;;;;;;;;;;764044;184;851548;-65
2022/05/14 04:31:08;;;;;;;14.93;10.43;;;;;;;;;;764080;183;617136;-65
2022/05/14 04:33:33;;;;;;;12.47;11.23;;;;;;;;;;751282;187;621523;-64
2022/05/14 04:35:59;;;;;;;14.47;10.93;;;;;;;;;;756912;184;637424;-65
2022/05/14 04:38:25;;;;;;;14.27;11.70;;;;;;;;;;754620;183;629767;-65
2022/05/14 04:40:51;;;;;;;18.47;13.07;;;;;;;;;;760478;183;626448;-65
2022/05/14 04:43:17;;;;;;;21.67;13.60;;;;;;;;;;763390;183;938940;-65
2022/05/14 04:45:43;;;;;;;17.67;13.10;;;;;;;;;;757997;184;919689;-64
2022/05/14 04:48:09;;;;;;;22.10;13.60;;;;;;;;;;756575;183;933063;-65
2022/05/14 04:50:34;;;;;;;16.77;12.57;;;;;;;;;;761393;183;1021456;-64
2022/05/14 04:53:00;;;;;;;23.57;14.60;;;;;;;;;;758397;183;921666;-64
2022/05/14 04:55:26;;;;;;;21.43;15.83;;;;;;;;;;760711;183;822772;-65
2022/05/14 04:57:52;;;;;;;23.90;17.60;;;;;;;;;;757569;183;919022;-65
2022/05/14 05:00:18;;;;;;;22.70;17.07;;;;;;;;;;755622;183;919119;-65
2022/05/14 05:05:15;;;;;;;24.33;19.00;;;;;;;;;;759403;183;921910;-65
2022/05/14 05:07:41;;;;;;;26.93;19.50;;;;;;;;;;765357;183;918779;-64
2022/05/14 05:10:08;;;;;;;26.73;18.60;;;;;;;;;;762392;183;920503;-65
2022/05/14 05:12:33;;;;;;;27.50;18.27;;;;;;;;;;761549;183;912235;-65
2022/05/14 05:14:59;;;;;;;23.10;16.90;;;;;;;;;;758024;183;911960;-64
2022/05/14 05:17:26;;;;;;;19.57;15.53;;;;;;;;;;759333;186;622982;-68
2022/05/14 05:19:51;;;;;;;26.77;15.27;;;;;;;;;;758272;184;919642;-65
2022/05/14 05:22:17;;;;;;;16.17;12.97;;;;;;;;;;759023;183;919537;-65
2022/05/14 05:24:43;;;;;;;15.40;13.23;;;;;;;;;;762911;183;918856;-66
2022/05/14 05:27:09;;;;;;;15.03;12.93;;;;;;;;;;763042;183;618912;-65
2022/05/14 05:29:34;;;;;;;18.93;12.13;;;;;;;;;;763417;183;635757;-65
2022/05/14 05:32:00;;;;;;;19.13;13.80;;;;;;;;;;765516;183;624915;-67
2022/05/14 05:34:27;;;;;;;13.60;11.23;;;;;;;;;;754470;185;634322;-67
2022/05/14 05:36:52;;;;;;;13.83;10.20;;;;;;;;;;761486;184;628167;-66
2022/05/14 05:39:18;;;;;;;14.73;7.95;;;;;;;;;;757639;183;950259;-65
2022/05/14 05:41:44;;;;;;;11.43;7.93;;;;;;;;;;757198;183;920710;-67
2022/05/14 05:44:10;;;;;;;11.17;7.00;;;;;;;;;;756669;183;919369;-67
2022/05/14 05:46:36;;;;;;;8.73;6.10;;;;;;;;;;755844;183;918985;-67
2022/05/14 05:49:01;;;;;;;9.50;5.80;;;;;;;;;;762075;183;923451;-67
2022/05/14 05:51:27;;;;;;;10.93;5.23;;;;;;;;;;756045;183;919528;-67
2022/05/14 05:58:56;;;;;;;8.80;5.17;;;;;;;;;;762372;183;900223;-68
2022/05/14 06:01:22;;;;;;;7.50;4.97;;;;;;;;;;757495;183;900392;-68
2022/05/14 06:03:48;;;;;;;12.85;5.12;;;;;;;;;;754851;183;1020602;-67
2022/05/14 06:06:14;;;;;;;7.90;4.50;;;;;;;;;;766049;183;643886;-70
2022/05/14 06:08:40;;;;;;;5.23;4.37;;;;;;;;;;759899;182;918656;-69
2022/05/14 06:11:06;;;;;;;8.43;4.80;;;;;;;;;;759527;182;922294;-69
2022/05/14 06:13:32;;;;;;;5.80;5.17;;;;;;;;;;764185;183;889771;-69
2022/05/14 06:15:59;;;;;;;7.57;5.70;;;;;;;;;;761137;183;632427;-69
2022/05/14 06:18:23;;;;;;;9.93;5.03;;;;;;;;;;760475;183;627376;-69
2022/05/14 06:20:49;;;;;;;7.43;4.50;;;;;;;;;;757852;183;928440;-68
2022/05/14 06:23:15;;;;;;;11.63;4.77;;;;;;;;;;764828;183;630303;-69
2022/05/14 06:25:41;;;;;;;11.73;5.20;;;;;;;;;;759227;183;918928;-69
2022/05/14 06:28:06;;;;;;;5.97;5.10;;;;;;;;;;757079;184;918977;-69
2022/05/14 06:30:33;;;;;;;13.77;5.20;;;;;;;;;;762054;184;919357;-70
2022/05/14 06:33:00;;;;;;;5.83;3.83;;;;;;;;;;760678;183;920493;-70
2022/05/14 06:35:26;;;;;;;7.00;4.53;;;;;;;;;;757243;183;1022692;-70
2022/05/14 06:37:52;;;;;;;7.43;5.20;;;;;;;;;;762231;183;920784;-70
2022/05/14 06:40:18;;;;;;;14.37;5.13;;;;;;;;;;760666;183;918674;-71
2022/05/14 06:42:43;;;;;;;16.03;5.60;;;;;;;;;;757884;183;918483;-71
2022/05/14 06:45:10;;;;;;;7.57;4.70;;;;;;;;;;759775;183;629660;-71
2022/05/14 06:47:35;;;;;;;4.57;3.60;;;;;;;;;;748254;188;630884;-72
2022/05/14 06:50:01;;;;;;;8.03;4.60;;;;;;;;;;739826;188;645104;-71
2022/05/14 06:52:27;;;;;;;9.20;4.80;;;;;;;;;;745248;187;915264;-71
2022/05/14 06:54:53;;;;;;;4.50;4.00;;;;;;;;;;762528;183;619295;-70
2022/05/14 06:57:19;;;;;;;19.03;5.37;;;;;;;;;;756472;183;1022148;-71
2022/05/14 06:59:45;;;;;;;19.37;4.97;;;;;;;;;;759246;184;921589;-70
2022/05/14 07:02:11;;;;;;;11.93;4.60;;;;;;;;;;760455;183;1022837;-70
2022/05/14 07:07:08;;;;;;;8.87;4.77;;;;;;;;;;763514;182;619990;-72
2022/05/14 07:09:34;;;;;;;6.30;4.40;;;;;;;;;;762468;183;623334;-72
2022/05/14 07:12:00;;;;;;;8.30;4.07;;;;;;;;;;765023;183;613449;-72
2022/05/14 07:14:26;;;;;;;5.33;4.03;;;;;;;;;;757782;183;621137;-72
2022/05/14 07:16:53;;;;;;;11.20;3.90;;;;;;;;;;758742;183;915861;-72
2022/05/14 07:19:17;;;;;;;8.50;3.33;;;;;;;;;;760206;183;919789;-72
2022/05/14 07:21:43;;;;;;;7.73;4.37;;;;;;;;;;758821;183;919464;-72
2022/05/14 07:24:09;;;;;;;8.47;4.00;;;;;;;;;;759204;183;918926;-70
2022/05/14 07:26:35;;;;;;;5.60;4.20;;;;;;;;;;761272;183;918835;-71
2022/05/14 07:29:01;;;;;;;11.70;4.10;;;;;;;;;;757815;185;920221;-72
2022/05/14 07:31:27;;;;;;;6.07;3.70;;;;;;;;;;753050;184;919781;-73
2022/05/14 07:33:53;;;;;;;8.83;4.50;;;;;;;;;;756389;183;915174;-72
2022/05/14 07:36:18;;;;;;;11.20;3.93;;;;;;;;;;763785;183;916533;-73
2022/05/14 07:38:45;;;;;;;7.90;3.40;;;;;;;;;;756393;184;916041;-74
2022/05/14 07:41:11;;;;;;;7.37;4.17;;;;;;;;;;758054;183;920188;-74
2022/05/14 07:43:36;;;;;;;6.93;4.60;;;;;;;;;;761982;183;918831;-72
2022/05/14 07:46:02;;;;;;;8.20;4.30;;;;;;;;;;757888;184;1122450;-75
2022/05/14 07:48:29;;;;;;;5.57;3.50;;;;;;;;;;760747;183;880977;-75
2022/05/14 07:50:55;;;;;;;6.80;4.13;;;;;;;;;;763503;183;815492;-75
2022/05/14 07:53:21;;;;;;;7.50;3.93;;;;;;;;;;763950;183;918412;-74
2022/05/14 07:55:47;;;;;;;8.13;3.67;;;;;;;;;;762971;183;626478;-75
2022/05/14 07:58:13;;;;;;;4.47;3.80;;;;;;;;;;757996;183;919285;-75
2022/05/14 08:00:39;;;;;;;8.43;3.77;;;;;;;;;;763177;184;919096;-74
2022/05/14 08:03:06;;;;;;;7.40;4.30;;;;;;;;;;755588;183;919553;-73
2022/05/14 08:05:33;;;;;;;6.07;3.20;;;;;;;;;;757667;183;918998;-74
2022/05/14 08:08:00;;;;;;;8.13;3.53;;;;;;;;;;769120;183;623403;-72
2022/05/14 08:10:26;;;;;;;8.43;3.90;;;;;;;;;;749092;186;816652;-72
2022/05/14 08:12:55;;;;;;;6.67;4.03;;;;;;;;;;754534;183;919078;-77
2022/05/14 08:15:22;;;;;;;6.80;3.20;;;;;;;;;;757011;184;919653;-72
2022/05/14 08:17:47;;;;;;;4.57;3.60;;;;;;;;;;758493;183;921223;-73
2022/05/14 08:20:13;;;;;;;12.13;3.40;;;;;;;;;;759870;183;927149;-72
2022/05/14 08:25:11;;;;;;;4.80;3.43;;;;;;;;;;760848;183;919179;-75
2022/05/14 08:27:51;;;;;;;14.50;3.63;;;;;;;;;;756342;186;919021;-76
2022/05/14 08:30:18;;;;;;;4.00;2.60;;;;;;;;;;736473;186;919242;-75
2022/05/14 08:32:44;;;;;;;8.20;3.30;;;;;;;;;;741958;188;917977;-76
2022/05/14 08:35:10;;;;;;;6.10;3.90;;;;;;;;;;755286;183;918830;-77
2022/05/14 08:37:36;;;;;;;11.53;3.07;;;;;;;;;;751781;183;1021299;-77
2022/05/14 08:40:06;;;;;;;6.83;3.67;;;;;;;;;;759083;183;919291;-75
2022/05/14 08:42:32;;;;;;;6.07;2.80;;;;;;;;;;760068;183;919525;-76
2022/05/14 08:44:58;;;;;;;12.43;3.20;;;;;;;;;;762209;184;920364;-77
2022/05/14 08:47:26;;;;;;;7.43;3.60;;;;;;;;;;756492;183;919323;-77
2022/05/14 08:49:53;;;;;;;11.90;3.30;;;;;;;;;;758018;183;919500;-77
2022/05/14 08:52:18;;;;;;;8.10;2.80;;;;;;;;;;757176;183;918822;-75
2022/05/14 08:54:44;;;;;;;9.13;3.03;;;;;;;;;;761691;183;918959;-78
2022/05/14 08:57:17;;;;;;;6.40;3.20;;;;;;;;;;755274;183;923924;-71
2022/05/14 08:59:56;;;;;;;4.43;3.37;;;;;;;;;;759580;183;919503;-76
2022/05/14 09:02:29;;;;;;;4.87;3.23;;;;;;;;;;758437;183;816296;-73
2022/05/14 09:04:56;;;;;;;5.80;2.60;;;;;;;;;;757493;183;918542;-76
2022/05/14 09:07:22;;;;;;;6.27;2.67;;;;;;;;;;763345;183;933988;-75
2022/05/14 09:09:50;;;;;;;4.90;2.70;;;;;;;;;;759417;183;918663;-76
2022/05/14 09:12:15;;;;;;;5.70;3.13;;;;;;;;;;758796;183;919130;-77
2022/05/14 09:14:41;;;;;;;6.93;3.40;;;;;;;;;;762172;183;919506;-82
2022/05/14 09:17:09;;;;;;;9.63;3.00;;;;;;;;;;754226;183;1034770;-77
2022/05/14 09:19:35;;;;;;;11.60;3.70;;;;;;;;;;757792;183;919261;-78
2022/05/14 09:22:02;;;;;;;4.90;2.50;;;;;;;;;;757241;183;919026;-76
2022/05/14 09:24:28;;;;;;;7.10;2.90;;;;;;;;;;763601;183;907647;-77
2022/05/14 09:26:55;;;;;;;5.97;2.23;;;;;;;;;;758261;183;984828;-72
2022/05/14 09:29:26;;;;;;;4.53;2.30;;;;;;;;;;753996;185;713214;-75
2022/05/14 09:31:53;;;;;;;5.87;3.30;;;;;;;;;;762209;183;918255;-76
2022/05/14 09:34:19;;;;;;;7.07;3.03;;;;;;;;;;762204;183;918152;-79
2022/05/14 09:36:45;;;;;;;4.07;2.50;;;;;;;;;;755854;184;929371;-80
2022/05/14 09:39:11;;;;;;;6.37;3.27;;;;;;;;;;757124;183;911777;-77
2022/05/14 09:41:40;;;;;;;4.80;3.20;;;;;;;;;;769005;182;719420;-79
2022/05/14 09:44:06;;;;;;;5.83;2.80;;;;;;;;;;759615;183;1018790;-80
2022/05/14 09:46:33;;;;;;;11.37;3.63;;;;;;;;;;758249;183;919403;-75
2022/05/14 09:49:03;;;;;;;13.37;3.50;;;;;;;;;;762781;183;918105;-73
2022/05/14 09:51:32;;;;;;;5.63;3.33;;;;;;;;;;764689;183;919029;-69
2022/05/14 09:54:03;;;;;;;12.02;3.20;;;;;;;;;;757114;183;937303;-74
2022/05/14 09:56:30;;;;;;;4.43;3.00;;;;;;;;;;756865;183;918521;-80
2022/05/14 09:59:02;;;;;;;8.03;3.33;;;;;;;;;;758421;183;918750;-75
2022/05/14 10:01:28;;;;;;;6.57;3.30;;;;;;;;;;758787;184;919208;-67
2022/05/14 10:03:59;;;;;;;7.40;3.20;;;;;;;;;;756321;183;982308;-70
2022/05/14 10:06:35;;;;;;;8.20;2.97;;;;;;;;;;757895;182;919690;-70
2022/05/14 10:09:01;;;;;;;11.50;4.10;;;;;;;;;;758039;183;929388;-71
2022/05/14 10:11:28;;;;;;;6.50;3.13;;;;;;;;;;763490;184;918310;-69
2022/05/14 10:14:05;;;;;;;8.00;3.07;;;;;;;;;;757435;183;943534;-69
2022/05/14 10:16:32;;;;;;;3.90;2.87;;;;;;;;;;758039;183;918246;-70
2022/05/14 10:19:09;;;;;;;6.27;2.53;;;;;;;;;;760199;183;917754;-67
2022/05/14 10:21:41;;;;;;;8.73;2.50;;;;;;;;;;757427;183;919365;-67
2022/05/14 10:26:45;;;;;;;8.70;3.27;;;;;;;;;;767417;182;919990;-71
2022/05/14 10:29:15;;;;;;;4.23;2.80;;;;;;;;;;760056;183;919250;-67
2022/05/14 10:31:43;;;;;;;4.53;2.80;;;;;;;;;;751957;183;919233;-70
2022/05/14 10:34:09;;;;;;;12.13;3.40;;;;;;;;;;745834;184;918612;-70
2022/05/14 10:36:37;;;;;;;10.03;2.90;;;;;;;;;;763250;184;920353;-68
2022/05/14 10:39:03;;;;;;;8.83;2.80;;;;;;;;;;757777;183;919754;-69
2022/05/14 10:41:31;;;;;;;11.17;3.10;;;;;;;;;;757547;183;965612;-70
2022/05/14 10:43:58;;;;;;;9.17;2.80;;;;;;;;;;757723;183;916409;-69
2022/05/14 10:46:24;;;;;;;8.07;2.70;;;;;;;;;;758126;183;917118;-68
2022/05/14 10:48:50;;;;;;;9.53;4.50;;;;;;;;;;764041;183;915431;-68
2022/05/14 10:51:19;;;;;;;8.00;2.70;;;;;;;;;;756952;182;924425;-66
2022/05/14 10:53:45;;;;;;;11.47;3.53;;;;;;;;;;765988;183;889042;-67
2022/05/14 10:56:10;;;;;;;4.80;3.17;;;;;;;;;;759155;183;920390;-68
2022/05/14 10:58:45;;;;;;;8.27;2.83;;;;;;;;;;759934;183;627335;-65
2022/05/14 11:01:17;;;;;;;7.97;3.37;;;;;;;;;;758923;183;919360;-68
2022/05/14 11:03:45;;;;;;;8.60;2.70;;;;;;;;;;763603;183;917310;-66
2022/05/14 11:06:09;;;;;;;3.53;2.57;;;;;;;;;;757042;183;919247;-67
2022/05/14 11:08:38;;;;;;;5.33;3.60;;;;;;;;;;755789;183;917857;-67
2022/05/14 11:11:05;;;;;;;7.90;3.40;;;;;;;;;;755120;183;1020857;-67
2022/05/14 11:13:31;;;;;;;4.80;2.87;;;;;;;;;;764470;183;918496;-66
2022/05/14 11:15:58;;;;;;;6.67;3.63;;;;;;;;;;759459;183;919807;-68
2022/05/14 11:18:24;;;;;;;6.77;3.50;;;;;;;;;;760364;183;915111;-71
2022/05/14 11:20:52;;;;;;;4.93;2.97;;;;;;;;;;761481;183;1225677;-68
2022/05/14 11:23:19;;;;;;;5.40;2.97;;;;;;;;;;758773;183;921987;-69
2022/05/14 11:25:55;;;;;;;4.13;2.30;;;;;;;;;;759605;183;893203;-71
2022/05/14 11:28:25;;;;;;;11.13;2.93;;;;;;;;;;754914;183;919423;-71
2022/05/14 11:30:51;;;;;;;4.93;2.33;;;;;;;;;;762941;183;816690;-69
2022/05/14 11:33:20;;;;;;;7.67;3.03;;;;;;;;;;759753;182;632102;-69
2022/05/14 11:35:46;;;;;;;7.40;3.00;;;;;;;;;;759249;183;680987;-69
2022/05/14 11:38:12;;;;;;;3.53;2.50;;;;;;;;;;758601;183;940771;-68
2022/05/14 11:40:38;;;;;;;8.00;2.80;;;;;;;;;;766029;183;620664;-69
2022/05/14 11:43:05;;;;;;;5.23;2.70;;;;;;;;;;762815;183;630969;-67
2022/05/14 11:45:31;;;;;;;6.33;2.43;;;;;;;;;;764391;183;637123;-67
2022/05/14 11:48:02;;;;;;;4.40;2.80;;;;;;;;;;759835;184;618965;-68
2022/05/14 11:50:31;;;;;;;6.97;2.80;;;;;;;;;;764526;183;629144;-70
2022/05/14 11:52:59;;;;;;;5.23;2.30;;;;;;;;;;758289;183;671553;-69
2022/05/14 11:55:24;;;;;;;4.90;2.70;;;;;;;;;;760350;183;813373;-69
2022/05/14 11:57:50;;;;;;;4.00;2.10;;;;;;;;;;764931;183;673126;-70
2022/05/14 12:00:17;;;;;;;9.13;2.60;;;;;;;;;;761123;183;632175;-66
2022/05/14 12:02:59;;;;;;;7.27;2.67;;;;;;;;;;763094;184;626576;-69
2022/05/14 12:05:25;;;;;;;5.57;2.50;;;;;;;;;;766118;182;918761;-71
2022/05/14 12:07:57;;;;;;;7.17;2.30;;;;;;;;;;764519;183;617386;-68
2022/05/14 12:10:24;;;;;;;4.20;2.00;;;;;;;;;;766000;183;631754;-68
2022/05/14 12:13:03;;;;;;;4.07;2.20;;;;;;;;;;762086;183;618927;-69
2022/05/14 12:15:30;;;;;;;10.20;2.50;;;;;;;;;;757874;183;642502;-66
2022/05/14 12:17:54;;;;;;;4.27;2.03;;;;;;;;;;761957;183;816489;-68
2022/05/14 12:20:20;;;;;;;7.47;2.00;;;;;;;;;;766918;183;633070;-69
2022/05/14 12:22:56;;;;;;;8.93;2.20;;;;;;;;;;762675;183;631981;-66
2022/05/14 12:25:21;;;;;;;4.20;2.40;;;;;;;;;;764395;183;632990;-78
2022/05/14 12:27:48;;;;;;;5.00;2.53;;;;;;;;;;758784;183;642188;-73
2022/05/14 12:35:27;;;;;;;5.43;2.20;;;;;;;;;;761041;182;804032;-79
2022/05/14 12:37:54;;;;;;;4.20;2.10;;;;;;;;;;761451;183;634129;-78
2022/05/14 12:40:35;;;;;;;10.90;2.40;;;;;;;;;;761013;184;677558;-81
2022/05/14 12:43:01;;;;;;;4.00;1.87;;;;;;;;;;763458;183;630419;-78
2022/05/14 12:45:31;;;;;;;3.33;1.80;;;;;;;;;;763145;183;628314;-79
2022/05/14 12:47:56;;;;;;;4.40;2.23;;;;;;;;;;755264;183;902571;-77
2022/05/14 12:50:24;;;;;;;16.00;3.13;;;;;;;;;;758904;183;915526;-74
2022/05/14 12:52:54;;;;;;;3.43;1.90;;;;;;;;;;764070;183;643992;-76
2022/05/14 12:55:20;;;;;;;8.77;2.33;;;;;;;;;;768818;183;617005;-78
2022/05/14 12:57:47;;;;;;;4.13;2.13;;;;;;;;;;761582;184;638458;-80
2022/05/14 13:00:12;;;;;;;4.93;2.40;;;;;;;;;;761026;184;722228;-76
2022/05/14 13:02:40;;;;;;;4.80;2.07;;;;;;;;;;763432;183;816021;-81
2022/05/14 13:05:09;;;;;;;5.13;2.20;;;;;;;;;;756262;183;1021667;-75
2022/05/14 13:07:34;;;;;;;3.80;1.87;;;;;;;;;;757933;184;816615;-79
2022/05/14 13:09:59;;;;;;;10.00;2.67;;;;;;;;;;765969;183;917582;-78
2022/05/14 13:12:25;;;;;;;4.50;2.50;;;;;;;;;;761019;183;906695;-78
2022/05/14 13:15:01;;;;;;;16.53;2.83;;;;;;;;;;757487;184;1020695;-79
2022/05/14 13:17:30;;;;;;;5.80;2.43;;;;;;;;;;764595;182;916761;-77
2022/05/14 13:19:56;;;;;;;8.50;2.10;;;;;;;;;;750650;186;919022;-77
2022/05/14 13:22:29;;;;;;;5.53;2.47;;;;;;;;;;769225;179;919495;-77
2022/05/14 13:24:55;;;;;;;2.53;1.43;;;;;;;;;;759435;183;816379;-76
2022/05/14 13:27:26;;;;;;;8.40;2.50;;;;;;;;;;758061;184;919647;-73
2022/05/14 13:29:52;;;;;;;24.10;5.63;;;;;;;;;;757275;183;917193;-77
2022/05/14 13:32:28;;;;;;;8.60;2.03;;;;;;;;;;765109;183;919045;-79
2022/05/14 13:37:29;;;;;;;3.37;1.80;;;;;;;;;;754080;183;815786;-74
2022/05/14 13:39:55;;;;;;;7.13;2.90;;;;;;;;;;752080;184;918959;-78
2022/05/14 13:42:22;;;;;;;11.23;2.93;;;;;;;;;;765058;183;787547;-79
2022/05/14 13:44:48;;;;;;;7.40;1.90;;;;;;;;;;760463;183;798569;-79
2022/05/14 13:47:13;;;;;;;5.60;1.75;;;;;;;;;;759319;183;969230;-78
2022/05/14 13:49:39;;;;;;;12.00;2.77;;;;;;;;;;764150;183;919408;-81
2022/05/14 13:52:05;;;;;;;13.87;3.80;;;;;;;;;;763680;183;796139;-79
2022/05/14 13:54:31;;;;;;;10.20;2.40;;;;;;;;;;761288;183;918398;-75
2022/05/14 13:56:59;;;;;;;5.30;1.83;;;;;;;;;;763271;184;919507;-80
2022/05/14 13:59:24;;;;;;;8.50;2.20;;;;;;;;;;767588;184;918274;-79
2022/05/14 14:01:51;;;;;;;5.60;2.30;;;;;;;;;;762384;184;919194;-81
2022/05/14 14:04:17;;;;;;;4.80;2.03;;;;;;;;;;761236;184;920020;-74
2022/05/14 14:06:43;;;;;;;7.03;1.80;;;;;;;;;;760668;184;1013400;-77
2022/05/14 14:09:09;;;;;;;6.30;1.80;;;;;;;;;;752962;184;919444;-78
2022/05/14 14:11:34;;;;;;;3.60;1.80;;;;;;;;;;750003;186;918069;-77
2022/05/14 14:14:01;;;;;;;9.73;3.20;;;;;;;;;;756037;184;919228;-74
2022/05/14 14:16:27;;;;;;;4.50;1.80;;;;;;;;;;759296;184;919962;-75
2022/05/14 14:18:52;;;;;;;4.30;1.90;;;;;;;;;;759679;183;919061;-79
2022/05/14 14:21:18;;;;;;;4.77;1.83;;;;;;;;;;763668;183;920768;-78
2022/05/14 14:23:45;;;;;;;5.07;1.77;;;;;;;;;;766632;183;817270;-80
2022/05/14 14:26:11;;;;;;;2.67;1.57;;;;;;;;;;759270;182;917233;-81
2022/05/14 14:28:37;;;;;;;9.73;2.03;;;;;;;;;;762346;182;944752;-76
2022/05/14 14:31:03;;;;;;;9.73;1.90;;;;;;;;;;760998;183;918444;-79
2022/05/14 14:33:28;;;;;;;9.13;1.70;;;;;;;;;;757850;183;919043;-80
2022/05/14 14:35:54;;;;;;;3.50;2.00;;;;;;;;;;762100;183;902912;-77
2022/05/14 14:38:20;;;;;;;5.07;2.27;;;;;;;;;;756275;183;915821;-78
2022/05/14 14:40:46;;;;;;;6.97;2.43;;;;;;;;;;757716;183;1018646;-75
2022/05/14 14:43:12;;;;;;;5.07;2.17;;;;;;;;;;758554;183;919853;-74
2022/05/14 14:45:37;;;;;;;6.70;1.90;;;;;;;;;;759355;183;817929;-80
2022/05/14 14:48:04;;;;;;;3.07;2.30;;;;;;;;;;765238;184;814692;-80
2022/05/14 14:50:29;;;;;;;6.20;2.50;;;;;;;;;;761158;184;913600;-81